Time;durP1;ratioP1;P1;durP2;ratioP2;P2;SDS_P1;SDS_P2;PMS_P1;PMS_P2;Temp;Humidity;BMP_temperature;BMP_pressure;BME280_temperature;BME280_humidity;BME280_pressure;Samples;Min_cycle;Max_cycle;Signal;HPM_P1;HPM_P2
2023/05/07 00:00:00;;;;;;;14.82;5.97;;;17.60;74.50;;;;;;5005379;28;20418;-76
2023/05/07 00:02:26;;;;;;;12.52;6.88;;;17.60;74.60;;;;;;5005391;28;20045;-78
2023/05/07 00:04:52;;;;;;;11.82;6.10;;;17.60;74.70;;;;;;4986461;28;20437;-76
2023/05/07 00:07:18;;;;;;;13.13;6.13;;;17.60;74.90;;;;;;4989417;28;20482;-76
2023/05/07 00:09:43;;;;;;;13.93;6.75;;;17.60;75.00;;;;;;5005742;28;20104;-76
2023/05/07 00:12:09;;;;;;;14.43;6.30;;;17.60;74.90;;;;;;5012318;28;20050;-76
2023/05/07 00:14:36;;;;;;;10.25;5.25;;;17.60;74.90;;;;;;5004239;28;20034;-77
2023/05/07 00:17:01;;;;;;;13.32;6.05;;;17.50;75.00;;;;;;5004501;28;20335;-76
2023/05/07 00:19:27;;;;;;;16.20;6.50;;;17.50;75.00;;;;;;5009563;28;20026;-78
2023/05/07 00:21:53;;;;;;;12.93;6.13;;;17.60;75.10;;;;;;5004469;28;20045;-76
2023/05/07 00:24:19;;;;;;;12.25;6.07;;;17.50;75.20;;;;;;4988011;28;20040;-78
2023/05/07 00:26:45;;;;;;;11.73;5.63;;;17.50;75.40;;;;;;5006740;28;20058;-76
2023/05/07 00:29:10;;;;;;;13.07;5.65;;;17.40;75.50;;;;;;5005290;28;20033;-76
2023/05/07 00:31:36;;;;;;;12.13;5.95;;;17.40;75.70;;;;;;5004454;28;20121;-75
2023/05/07 00:34:02;;;;;;;17.10;8.60;;;17.40;75.90;;;;;;5005679;28;20079;-78
2023/05/07 00:36:28;;;;;;;9.23;5.97;;;17.30;75.70;;;;;;5004237;28;20045;-76
2023/05/07 00:38:56;;;;;;;13.65;6.18;;;17.30;76.10;;;;;;5004463;28;20034;-76
2023/05/07 00:41:22;;;;;;;15.93;7.15;;;17.30;76.10;;;;;;5005984;28;20080;-76
2023/05/07 00:43:48;;;;;;;11.25;5.60;;;17.20;76.20;;;;;;5008227;28;20464;-76
2023/05/07 00:46:15;;;;;;;13.80;6.25;;;17.20;76.40;;;;;;5002685;28;20390;-75
2023/05/07 00:48:41;;;;;;;13.30;6.25;;;17.20;76.70;;;;;;5004302;28;20141;-77
2023/05/07 00:51:07;;;;;;;13.55;7.07;;;17.20;76.80;;;;;;5006933;28;20466;-75
2023/05/07 00:53:32;;;;;;;15.35;8.18;;;17.20;76.80;;;;;;5004291;28;20052;-76
2023/05/07 00:55:58;;;;;;;9.48;6.57;;;17.10;76.80;;;;;;5004133;28;20032;-80
2023/05/07 00:58:24;;;;;;;13.30;6.97;;;17.10;76.70;;;;;;5002890;28;20022;-76
2023/05/07 01:00:50;;;;;;;13.43;7.05;;;17.10;76.80;;;;;;5003112;28;20354;-76
2023/05/07 01:03:16;;;;;;;13.18;6.93;;;17.10;76.90;;;;;;5003867;28;20038;-77
2023/05/07 01:05:44;;;;;;;15.05;7.22;;;17.10;77.00;;;;;;5005416;28;20433;-76
2023/05/07 01:08:10;;;;;;;13.80;6.80;;;17.00;77.00;;;;;;5002241;28;20037;-79
2023/05/07 01:10:36;;;;;;;15.07;7.53;;;17.00;76.90;;;;;;5002618;28;20504;-77
2023/05/07 01:13:02;;;;;;;16.45;6.95;;;17.00;76.90;;;;;;5003701;28;20599;-75
2023/05/07 01:15:28;;;;;;;13.10;7.25;;;17.00;77.00;;;;;;4991674;28;20030;-75
2023/05/07 01:17:53;;;;;;;12.90;7.65;;;16.90;77.20;;;;;;5009305;28;20030;-78
2023/05/07 01:20:19;;;;;;;14.00;7.63;;;16.90;77.30;;;;;;5003177;28;20026;-80
2023/05/07 01:22:45;;;;;;;13.35;6.85;;;16.90;77.50;;;;;;5004050;28;20088;-79
2023/05/07 01:25:11;;;;;;;14.60;7.10;;;16.80;77.70;;;;;;5002566;28;20042;-79
2023/05/07 01:27:37;;;;;;;12.95;6.30;;;16.80;77.90;;;;;;4992177;28;20099;-78
2023/05/07 01:30:04;;;;;;;13.45;6.78;;;16.80;78.00;;;;;;5004643;28;20234;-79
2023/05/07 01:33:02;;;;;;;12.70;6.57;;;16.80;78.00;;;;;;5000259;28;20084;-77
2023/05/07 01:35:33;;;;;;;15.02;7.65;;;16.80;78.10;;;;;;5002640;28;20121;-76
2023/05/07 01:38:00;;;;;;;14.20;7.75;;;16.80;78.30;;;;;;5003466;28;20064;-81
2023/05/07 01:40:27;;;;;;;14.35;6.93;;;16.80;78.20;;;;;;5001045;28;20038;-79
2023/05/07 01:42:54;;;;;;;15.55;7.38;;;16.80;78.30;;;;;;5000110;28;20892;-77
2023/05/07 01:45:20;;;;;;;11.65;6.82;;;16.80;78.30;;;;;;4984520;28;20030;-75
2023/05/07 01:47:46;;;;;;;12.85;7.68;;;16.80;78.30;;;;;;5004818;28;20026;-77
2023/05/07 01:50:12;;;;;;;12.65;7.28;;;16.80;78.30;;;;;;4986727;28;20034;-77
2023/05/07 01:52:38;;;;;;;13.88;7.85;;;16.80;78.40;;;;;;5003951;28;20125;-78
2023/05/07 01:55:06;;;;;;;11.38;7.40;;;16.80;78.40;;;;;;5002311;28;20037;-77
2023/05/07 01:57:31;;;;;;;12.52;7.68;;;16.70;78.60;;;;;;5004095;28;20091;-77
2023/05/07 01:59:57;;;;;;;14.05;7.55;;;16.70;78.60;;;;;;4988264;28;20049;-76
2023/05/07 02:02:23;;;;;;;15.73;7.70;;;16.70;78.60;;;;;;4984613;28;20064;-76
2023/05/07 02:04:48;;;;;;;12.63;6.97;;;16.70;78.60;;;;;;5000411;28;20414;-75
2023/05/07 02:07:14;;;;;;;13.25;8.20;;;16.70;78.80;;;;;;5003253;28;20046;-78
2023/05/07 02:09:40;;;;;;;14.90;8.23;;;16.70;78.90;;;;;;5004655;28;20399;-75
2023/05/07 02:12:05;;;;;;;13.88;7.82;;;16.60;79.00;;;;;;5003068;28;20124;-77
2023/05/07 02:14:31;;;;;;;15.85;8.05;;;16.60;79.10;;;;;;5001837;28;20033;-80
2023/05/07 02:16:57;;;;;;;15.60;8.60;;;16.60;79.20;;;;;;5003172;28;20171;-77
2023/05/07 02:19:22;;;;;;;15.50;8.95;;;16.60;79.30;;;;;;5003561;28;20038;-76
2023/05/07 02:21:48;;;;;;;14.15;8.45;;;16.60;79.30;;;;;;5003025;28;20033;-77
2023/05/07 02:24:14;;;;;;;15.52;8.48;;;16.60;79.50;;;;;;4984330;28;20091;-78
2023/05/07 02:26:41;;;;;;;13.90;8.30;;;16.60;79.50;;;;;;5002507;28;20124;-75
2023/05/07 02:29:06;;;;;;;12.95;8.48;;;16.60;79.60;;;;;;5002272;28;20053;-80
2023/05/07 02:31:33;;;;;;;15.23;8.80;;;16.50;79.60;;;;;;5001317;28;20198;-76
2023/05/07 02:33:59;;;;;;;16.88;9.25;;;16.50;79.60;;;;;;5002931;28;20509;-76
2023/05/07 02:36:26;;;;;;;15.50;9.45;;;16.40;79.80;;;;;;4985596;28;20046;-78
2023/05/07 02:38:52;;;;;;;15.95;8.80;;;16.50;79.80;;;;;;5003520;28;20525;-77
2023/05/07 02:41:18;;;;;;;17.38;9.95;;;16.40;79.80;;;;;;5003631;28;20042;-76
2023/05/07 02:43:43;;;;;;;14.88;9.57;;;16.50;79.80;;;;;;5001903;28;20129;-78
2023/05/07 02:46:10;;;;;;;14.93;9.45;;;16.50;79.80;;;;;;5002322;28;20133;-77
2023/05/07 02:48:35;;;;;;;14.27;9.27;;;16.50;79.80;;;;;;5002139;28;20040;-79
2023/05/07 02:51:02;;;;;;;13.35;8.73;;;16.50;79.80;;;;;;4985373;28;20038;-77
2023/05/07 02:53:29;;;;;;;15.00;9.60;;;16.50;79.90;;;;;;5002802;28;20034;-76
2023/05/07 02:55:58;;;;;;;16.42;9.85;;;16.50;79.90;;;;;;4983249;28;20037;-78
2023/05/07 02:58:24;;;;;;;16.25;9.77;;;16.50;79.80;;;;;;5001881;28;20057;-78
2023/05/07 03:00:50;;;;;;;14.80;10.13;;;16.50;79.60;;;;;;5000719;28;20045;-77
2023/05/07 03:03:15;;;;;;;16.90;10.30;;;16.40;79.70;;;;;;4996767;28;20497;-75
2023/05/07 03:05:41;;;;;;;16.00;10.35;;;16.40;79.80;;;;;;5001593;28;20061;-76
2023/05/07 03:08:07;;;;;;;17.23;10.63;;;16.30;79.90;;;;;;5003060;28;20068;-79
2023/05/07 03:10:33;;;;;;;14.07;8.98;;;16.30;80.20;;;;;;5002276;28;20479;-76
2023/05/07 03:12:59;;;;;;;16.20;10.57;;;16.40;80.20;;;;;;5001875;28;20034;-81
2023/05/07 03:15:25;;;;;;;17.60;9.65;;;16.30;80.10;;;;;;5002423;28;20168;-76
2023/05/07 03:17:51;;;;;;;19.40;10.00;;;16.40;79.90;;;;;;5002009;28;20495;-77
2023/05/07 03:20:16;;;;;;;18.35;10.95;;;16.40;79.90;;;;;;4999963;28;20474;-77
2023/05/07 03:22:42;;;;;;;16.25;9.80;;;16.40;79.90;;;;;;5000566;28;20591;-77
2023/05/07 03:25:08;;;;;;;17.73;10.55;;;16.40;79.90;;;;;;4999825;28;20030;-78
2023/05/07 03:27:34;;;;;;;15.30;10.20;;;16.30;80.10;;;;;;5002054;28;20037;-78
2023/05/07 03:30:00;;;;;;;21.65;10.77;;;16.40;80.20;;;;;;4996666;28;20045;-76
2023/05/07 03:32:26;;;;;;;21.00;11.52;;;16.40;80.30;;;;;;4999353;28;20049;-77
2023/05/07 03:34:52;;;;;;;15.32;10.20;;;16.30;80.30;;;;;;5001704;28;20034;-76
2023/05/07 03:37:18;;;;;;;15.52;10.18;;;16.40;80.30;;;;;;5001971;28;20192;-76
2023/05/07 03:39:43;;;;;;;18.38;10.38;;;16.40;80.30;;;;;;5002051;28;20601;-76
2023/05/07 03:42:09;;;;;;;14.85;10.73;;;16.40;80.30;;;;;;5001132;28;20048;-78
2023/05/07 03:44:36;;;;;;;14.93;10.70;;;16.40;80.30;;;;;;5000153;28;20649;-80
2023/05/07 03:47:02;;;;;;;15.82;10.43;;;16.40;80.30;;;;;;4999158;28;20040;-76
2023/05/07 03:49:28;;;;;;;16.50;10.75;;;16.50;80.10;;;;;;5000444;28;20451;-77
2023/05/07 03:51:53;;;;;;;15.05;10.70;;;16.50;80.00;;;;;;5001383;28;20026;-76
2023/05/07 03:54:19;;;;;;;17.38;11.00;;;16.50;80.00;;;;;;4999930;28;20385;-77
2023/05/07 03:56:45;;;;;;;17.95;11.57;;;16.50;79.90;;;;;;5000786;28;20030;-79
2023/05/07 03:59:10;;;;;;;16.30;10.00;;;16.50;80.00;;;;;;5002343;28;20474;-77
2023/05/07 04:01:36;;;;;;;16.70;10.20;;;16.50;80.20;;;;;;4998734;28;20491;-78
2023/05/07 04:04:02;;;;;;;15.65;10.90;;;16.50;80.30;;;;;;5000167;28;20040;-75
2023/05/07 04:06:28;;;;;;;15.23;10.13;;;16.50;80.40;;;;;;4994665;28;20060;-78
2023/05/07 04:08:54;;;;;;;15.98;10.52;;;16.50;80.50;;;;;;4994435;28;20033;-75
2023/05/07 04:11:20;;;;;;;16.05;9.77;;;16.40;80.60;;;;;;5001044;28;20478;-78
2023/05/07 04:13:46;;;;;;;16.83;11.48;;;16.40;80.70;;;;;;4996341;28;20291;-76
2023/05/07 04:16:11;;;;;;;13.68;9.77;;;16.40;80.80;;;;;;4999653;28;20048;-79
2023/05/07 04:18:37;;;;;;;19.73;10.77;;;16.40;81.00;;;;;;5001089;28;20041;-77
2023/05/07 04:21:03;;;;;;;15.20;9.90;;;16.40;81.20;;;;;;5000316;28;20403;-79
2023/05/07 04:23:29;;;;;;;13.95;10.55;;;16.40;81.30;;;;;;5001378;28;20025;-80
2023/05/07 04:25:55;;;;;;;22.23;12.07;;;16.40;81.40;;;;;;5000760;28;20072;-77
2023/05/07 04:28:20;;;;;;;17.63;10.55;;;16.30;81.50;;;;;;5001393;28;20490;-77
2023/05/07 04:30:46;;;;;;;15.65;10.70;;;16.40;81.60;;;;;;4996922;28;20029;-75
2023/05/07 04:33:14;;;;;;;16.58;11.02;;;16.30;81.70;;;;;;5004961;28;20034;-77
2023/05/07 04:35:40;;;;;;;13.00;9.70;;;16.40;81.70;;;;;;5004506;28;20030;-78
2023/05/07 04:38:06;;;;;;;14.15;10.55;;;16.40;81.80;;;;;;5000562;28;20041;-76
2023/05/07 04:40:31;;;;;;;13.90;9.50;;;16.50;81.80;;;;;;5004337;28;20043;-78
2023/05/07 04:42:57;;;;;;;12.77;9.90;;;16.40;81.80;;;;;;5003596;28;20322;-78
2023/05/07 04:45:23;;;;;;;20.67;11.23;;;16.50;81.70;;;;;;5005311;28;20042;-77
2023/05/07 04:47:48;;;;;;;13.27;9.68;;;16.50;81.80;;;;;;5005413;28;20361;-76
2023/05/07 04:50:14;;;;;;;16.73;9.73;;;16.50;81.80;;;;;;5004285;28;20029;-77
2023/05/07 04:52:39;;;;;;;16.88;10.85;;;16.50;81.80;;;;;;5003995;28;20034;-79
2023/05/07 04:55:05;;;;;;;16.75;10.55;;;16.50;81.70;;;;;;5005751;28;20026;-77
2023/05/07 04:57:31;;;;;;;17.35;10.32;;;16.60;81.50;;;;;;5002630;28;20065;-76
2023/05/07 04:59:57;;;;;;;15.20;10.80;;;16.50;81.50;;;;;;5005557;28;20458;-77
2023/05/07 05:02:23;;;;;;;15.20;11.38;;;16.50;81.40;;;;;;5004557;28;20185;-77
2023/05/07 05:04:48;;;;;;;16.45;11.48;;;16.60;81.40;;;;;;4989687;28;20763;-76
2023/05/07 05:07:14;;;;;;;20.63;12.48;;;16.50;81.20;;;;;;5005575;28;20451;-80
2023/05/07 05:09:40;;;;;;;19.42;11.43;;;16.50;81.30;;;;;;5002699;28;20447;-78
2023/05/07 05:12:07;;;;;;;15.50;11.63;;;16.50;81.40;;;;;;5003850;28;20057;-76
2023/05/07 05:14:32;;;;;;;15.63;10.90;;;16.60;81.30;;;;;;4992522;28;20258;-77
2023/05/07 05:16:58;;;;;;;17.38;10.98;;;16.50;81.40;;;;;;4987262;28;20022;-77
2023/05/07 05:19:24;;;;;;;18.75;11.13;;;16.60;81.40;;;;;;5006108;28;20451;-77
2023/05/07 05:21:49;;;;;;;18.30;10.90;;;16.60;81.40;;;;;;5003410;28;20030;-80
2023/05/07 05:24:15;;;;;;;18.20;11.90;;;16.60;81.70;;;;;;5003578;28;20034;-76
2023/05/07 05:26:41;;;;;;;18.73;10.60;;;16.60;81.80;;;;;;5001603;28;20120;-77
2023/05/07 05:29:07;;;;;;;15.43;10.45;;;16.60;81.90;;;;;;5004877;28;20573;-78
2023/05/07 05:31:33;;;;;;;17.48;10.43;;;16.60;82.10;;;;;;5003562;28;20324;-78
2023/05/07 05:33:59;;;;;;;16.85;10.68;;;16.60;82.20;;;;;;5003633;28;20026;-80
2023/05/07 05:36:25;;;;;;;16.20;9.90;;;16.60;82.40;;;;;;5002119;28;20308;-78
2023/05/07 05:38:51;;;;;;;15.13;9.43;;;16.60;82.60;;;;;;5003645;28;20030;-77
2023/05/07 05:41:16;;;;;;;18.90;10.65;;;16.60;82.70;;;;;;4990678;28;20084;-80
2023/05/07 05:43:42;;;;;;;16.00;9.65;;;16.60;83.10;;;;;;5004557;28;20022;-77
2023/05/07 05:46:10;;;;;;;16.35;9.85;;;16.60;83.30;;;;;;5003240;28;20041;-83
2023/05/07 05:48:36;;;;;;;13.45;9.38;;;16.60;83.60;;;;;;5010259;28;20076;-81
2023/05/07 05:51:02;;;;;;;17.10;10.18;;;16.50;83.80;;;;;;5005371;28;20046;-83
2023/05/07 05:53:27;;;;;;;13.95;9.38;;;16.60;84.00;;;;;;5004316;28;20026;-82
2023/05/07 05:55:53;;;;;;;17.05;9.77;;;16.60;84.10;;;;;;5004020;28;20068;-79
2023/05/07 05:58:19;;;;;;;16.50;9.35;;;16.60;84.20;;;;;;5004378;28;20107;-81
2023/05/07 06:00:46;;;;;;;14.40;9.00;;;16.50;84.40;;;;;;4986254;28;20042;-81
2023/05/07 06:03:12;;;;;;;14.75;9.25;;;16.50;84.80;;;;;;4984091;28;20499;-79
2023/05/07 06:05:38;;;;;;;15.50;9.50;;;16.50;84.80;;;;;;4986084;28;20152;-81
2023/05/07 06:08:03;;;;;;;15.18;9.65;;;16.50;84.90;;;;;;5003909;28;20118;-78
2023/05/07 06:10:30;;;;;;;15.10;9.30;;;16.50;85.30;;;;;;5004612;28;20128;-84
2023/05/07 06:12:56;;;;;;;15.77;9.65;;;16.50;85.50;;;;;;5003600;28;20359;-81
2023/05/07 06:15:22;;;;;;;14.55;8.95;;;16.50;85.70;;;;;;5001384;28;20383;-80
2023/05/07 06:17:48;;;;;;;13.40;8.65;;;16.50;85.70;;;;;;5000122;28;20564;-82
2023/05/07 06:20:14;;;;;;;15.30;8.80;;;16.50;85.80;;;;;;5000244;28;20018;-79
2023/05/07 06:22:40;;;;;;;13.48;8.52;;;16.60;85.90;;;;;;4998950;28;20072;-81
2023/05/07 06:25:06;;;;;;;15.57;8.98;;;16.60;85.90;;;;;;5003005;28;20240;-80
2023/05/07 06:27:32;;;;;;;14.52;9.52;;;16.60;86.20;;;;;;5003244;28;20489;-80
2023/05/07 06:29:57;;;;;;;12.93;8.18;;;16.60;86.00;;;;;;4988279;28;20022;-81
2023/05/07 06:32:23;;;;;;;13.50;8.35;;;16.60;86.10;;;;;;5002090;28;20044;-80
2023/05/07 06:34:49;;;;;;;13.68;8.48;;;16.60;86.60;;;;;;5003674;28;20225;-78
2023/05/07 06:37:14;;;;;;;10.63;6.82;;;16.70;86.40;;;;;;5001069;28;20092;-83
2023/05/07 06:39:40;;;;;;;11.52;8.18;;;16.70;86.30;;;;;;5000397;28;20467;-84
2023/05/07 06:42:06;;;;;;;11.82;7.85;;;16.70;86.20;;;;;;4999429;28;20026;-81
2023/05/07 06:44:32;;;;;;;16.83;9.32;;;16.70;85.90;;;;;;4999328;28;20655;-80
2023/05/07 06:46:57;;;;;;;12.13;8.02;;;16.70;86.40;;;;;;4979048;28;20069;-81
2023/05/07 06:49:23;;;;;;;13.48;7.70;;;16.70;86.30;;;;;;5000535;28;20056;-82
2023/05/07 06:51:49;;;;;;;11.63;7.78;;;16.70;86.60;;;;;;4987331;28;20096;-79
2023/05/07 06:54:15;;;;;;;13.82;8.75;;;16.80;86.40;;;;;;5001923;28;20529;-80
2023/05/07 06:56:40;;;;;;;13.30;8.00;;;16.70;86.40;;;;;;5001454;28;20037;-80
2023/05/07 06:59:06;;;;;;;12.57;7.68;;;16.80;86.50;;;;;;4985585;28;20018;-81
2023/05/07 07:01:32;;;;;;;14.02;8.60;;;16.90;86.40;;;;;;5000702;28;20058;-80
2023/05/07 07:03:57;;;;;;;15.50;8.43;;;16.90;86.30;;;;;;5000512;28;20038;-80
2023/05/07 07:06:23;;;;;;;10.93;7.47;;;16.90;86.30;;;;;;4996501;28;20045;-80
2023/05/07 07:08:49;;;;;;;14.98;8.63;;;16.90;86.20;;;;;;4997745;28;20026;-83
2023/05/07 07:11:15;;;;;;;11.70;7.32;;;16.90;86.10;;;;;;4991723;28;20506;-83
2023/05/07 07:13:42;;;;;;;14.10;8.07;;;16.90;86.20;;;;;;5003607;28;20030;-79
2023/05/07 07:16:08;;;;;;;12.25;7.18;;;17.00;86.20;;;;;;4999928;28;20042;-80
2023/05/07 07:18:34;;;;;;;12.73;7.05;;;16.90;86.30;;;;;;4995119;28;20040;-81
2023/05/07 07:20:59;;;;;;;11.40;6.75;;;17.00;86.20;;;;;;5002440;28;20502;-79
2023/05/07 07:23:25;;;;;;;11.00;6.55;;;17.00;86.40;;;;;;4998984;28;20040;-81
2023/05/07 07:25:51;;;;;;;11.23;6.65;;;17.10;86.30;;;;;;4998659;28;20354;-81
2023/05/07 07:28:17;;;;;;;11.57;6.88;;;17.10;86.20;;;;;;4990711;28;20024;-81
2023/05/07 07:30:43;;;;;;;13.50;7.25;;;17.10;86.10;;;;;;4993647;28;20026;-78
2023/05/07 07:33:08;;;;;;;10.20;6.70;;;17.20;86.10;;;;;;5001139;28;20037;-79
2023/05/07 07:35:34;;;;;;;10.45;5.68;;;17.20;85.90;;;;;;5002872;28;20033;-79
2023/05/07 07:38:01;;;;;;;10.45;6.38;;;17.10;86.00;;;;;;5001963;28;20117;-81
2023/05/07 07:40:27;;;;;;;12.50;7.30;;;17.20;86.40;;;;;;4984653;28;20117;-81
2023/05/07 07:42:53;;;;;;;11.45;6.57;;;17.30;86.30;;;;;;4999290;28;20041;-80
2023/05/07 07:45:19;;;;;;;11.65;6.30;;;17.30;86.00;;;;;;4984069;28;20563;-81
2023/05/07 07:47:45;;;;;;;11.32;5.93;;;17.30;86.10;;;;;;4999953;28;20026;-82
2023/05/07 07:50:11;;;;;;;10.82;6.03;;;17.40;85.90;;;;;;5003671;28;20465;-79
2023/05/07 07:52:37;;;;;;;13.40;6.60;;;17.40;85.80;;;;;;4984653;28;20069;-83
2023/05/07 07:55:04;;;;;;;11.93;7.18;;;17.40;85.70;;;;;;5003242;28;20030;-81
2023/05/07 07:57:30;;;;;;;12.40;7.78;;;17.40;85.60;;;;;;4981471;28;20092;-80
2023/05/07 07:59:56;;;;;;;10.50;6.72;;;17.50;85.40;;;;;;4996444;28;20038;-79
2023/05/07 08:02:21;;;;;;;10.55;6.10;;;17.40;85.50;;;;;;4988471;28;20502;-78
2023/05/07 08:04:47;;;;;;;11.57;5.90;;;17.50;85.20;;;;;;5003574;28;20826;-79
2023/05/07 08:07:13;;;;;;;11.55;5.78;;;17.40;85.20;;;;;;5005715;28;20074;-81
2023/05/07 08:09:39;;;;;;;10.00;5.90;;;17.40;85.40;;;;;;5006271;28;20358;-80
2023/05/07 08:12:06;;;;;;;10.73;5.50;;;17.50;85.30;;;;;;5007420;28;20430;-83
2023/05/07 08:14:32;;;;;;;12.73;6.28;;;17.60;85.40;;;;;;5005085;28;20479;-80
2023/05/07 08:16:57;;;;;;;9.80;6.05;;;17.60;85.50;;;;;;5002427;28;20046;-79
2023/05/07 08:19:23;;;;;;;12.75;6.40;;;17.60;85.40;;;;;;5000226;28;20125;-79
2023/05/07 08:21:49;;;;;;;10.77;6.43;;;17.60;84.90;;;;;;5003261;28;20534;-79
2023/05/07 08:24:15;;;;;;;11.68;6.30;;;17.70;85.50;;;;;;4986643;28;20030;-80
2023/05/07 08:26:41;;;;;;;11.35;6.60;;;17.80;85.30;;;;;;5007077;28;20092;-78
2023/05/07 08:29:07;;;;;;;13.20;7.38;;;17.90;85.30;;;;;;5006016;28;20029;-78
2023/05/07 08:31:33;;;;;;;10.60;6.32;;;18.00;85.00;;;;;;5005140;28;20546;-80
2023/05/07 08:33:59;;;;;;;9.82;6.40;;;18.00;85.00;;;;;;5005012;28;20034;-78
2023/05/07 08:36:28;;;;;;;11.93;7.40;;;18.00;85.00;;;;;;4988901;28;20045;-83
2023/05/07 08:38:54;;;;;;;12.82;7.40;;;18.10;84.60;;;;;;5005834;28;20029;-78
2023/05/07 08:41:20;;;;;;;10.88;6.68;;;18.10;84.10;;;;;;5004445;28;20042;-78
2023/05/07 08:43:49;;;;;;;11.48;6.95;;;18.10;84.10;;;;;;5005586;28;20383;-79
2023/05/07 08:46:22;;;;;;;11.45;6.25;;;18.20;84.40;;;;;;5005605;28;20433;-80
2023/05/07 08:48:51;;;;;;;13.27;7.40;;;18.30;84.40;;;;;;5003577;28;20814;-78
2023/05/07 08:51:19;;;;;;;11.50;6.70;;;18.20;83.30;;;;;;4999651;28;20554;-79
2023/05/07 08:53:46;;;;;;;12.77;6.68;;;18.40;83.40;;;;;;4986926;28;20250;-78
2023/05/07 08:56:12;;;;;;;11.52;5.70;;;18.50;83.50;;;;;;4988306;28;20045;-82
2023/05/07 08:58:38;;;;;;;10.02;5.40;;;18.40;82.50;;;;;;4997266;28;20037;-80
2023/05/07 09:01:08;;;;;;;11.85;6.88;;;18.60;82.40;;;;;;5005834;28;20418;-79
2023/05/07 09:03:34;;;;;;;10.88;6.30;;;18.70;81.90;;;;;;4982040;28;20370;-78
2023/05/07 09:06:00;;;;;;;9.27;4.95;;;18.70;81.50;;;;;;4981267;28;25888;-80
2023/05/07 09:08:27;;;;;;;10.07;5.30;;;18.80;81.50;;;;;;4983808;28;20025;-81
2023/05/07 09:10:53;;;;;;;10.77;5.40;;;18.90;81.50;;;;;;5005634;28;20030;-79
2023/05/07 09:13:19;;;;;;;10.18;4.55;;;19.00;81.60;;;;;;5006485;28;20134;-78
2023/05/07 09:15:45;;;;;;;10.52;6.90;;;19.10;81.10;;;;;;5003889;28;20029;-80
2023/05/07 09:18:12;;;;;;;9.05;4.38;;;19.20;81.10;;;;;;5001912;28;20541;-78
2023/05/07 09:20:39;;;;;;;10.40;5.22;;;19.20;80.30;;;;;;5003156;28;20033;-82
2023/05/07 09:23:06;;;;;;;8.45;4.38;;;19.40;80.00;;;;;;4998339;28;20037;-81
2023/05/07 09:25:33;;;;;;;9.32;4.05;;;19.50;79.90;;;;;;5013726;28;20460;-79
2023/05/07 09:28:00;;;;;;;9.48;3.80;;;19.60;79.70;;;;;;5004531;28;20141;-81
2023/05/07 09:30:31;;;;;;;10.20;4.53;;;19.70;79.50;;;;;;5007562;28;20088;-79
2023/05/07 09:33:00;;;;;;;8.07;3.67;;;19.70;78.20;;;;;;5002190;28;20034;-81
2023/05/07 09:35:27;;;;;;;10.52;3.67;;;19.70;78.10;;;;;;4999844;28;20606;-79
2023/05/07 09:37:57;;;;;;;8.85;3.70;;;19.80;78.10;;;;;;5003523;28;20326;-79
2023/05/07 09:40:28;;;;;;;8.88;3.92;;;19.80;77.90;;;;;;5003472;28;20026;-79
2023/05/07 09:42:54;;;;;;;8.48;3.97;;;20.10;78.10;;;;;;5002681;28;20479;-81
2023/05/07 09:45:27;;;;;;;10.57;4.28;;;20.10;77.80;;;;;;5004109;28;20558;-78
2023/05/07 09:47:57;;;;;;;9.52;4.45;;;20.10;76.70;;;;;;5006055;28;20042;-78
2023/05/07 09:50:28;;;;;;;10.13;4.18;;;20.20;76.80;;;;;;4986527;28;20026;-80
2023/05/07 09:52:55;;;;;;;9.68;3.72;;;20.30;76.30;;;;;;5001591;28;20045;-78
2023/05/07 09:55:22;;;;;;;8.93;4.30;;;20.20;76.60;;;;;;4997818;28;20032;-82
2023/05/07 09:57:50;;;;;;;11.80;4.72;;;20.30;77.50;;;;;;5003560;28;20082;-81
2023/05/07 10:00:19;;;;;;;10.13;5.53;;;20.30;76.30;;;;;;5000049;28;20050;-80
2023/05/07 10:02:49;;;;;;;10.80;5.03;;;20.00;77.10;;;;;;5004945;28;20057;-79
2023/05/07 10:05:17;;;;;;;10.20;5.25;;;19.90;77.40;;;;;;4980084;28;20148;-79
2023/05/07 10:07:43;;;;;;;9.30;4.82;;;19.80;77.50;;;;;;5001375;28;20042;-77
2023/05/07 10:10:10;;;;;;;11.48;5.63;;;19.80;78.00;;;;;;4999228;28;20087;-80
2023/05/07 10:12:38;;;;;;;8.68;4.82;;;19.90;76.90;;;;;;5005600;28;20125;-77
2023/05/07 10:15:08;;;;;;;9.30;4.97;;;19.80;77.00;;;;;;5003937;28;20037;-79
2023/05/07 10:17:38;;;;;;;10.02;4.88;;;19.80;77.50;;;;;;5003039;28;20114;-81
2023/05/07 10:20:05;;;;;;;10.00;5.03;;;19.80;77.70;;;;;;5001498;28;20060;-79
2023/05/07 10:22:40;;;;;;;8.38;4.65;;;19.80;78.20;;;;;;5002819;28;20034;-78
2023/05/07 10:25:17;;;;;;;10.88;4.97;;;19.90;78.20;;;;;;4982113;28;20168;-79
2023/05/07 10:27:44;;;;;;;8.40;5.07;;;19.80;77.20;;;;;;5001284;28;20038;-81
2023/05/07 10:30:29;;;;;;;8.75;4.20;;;19.80;77.90;;;;;;5003994;28;20037;-81
2023/05/07 10:33:05;;;;;;;9.90;4.20;;;19.80;78.20;;;;;;5004865;28;20113;-82
2023/05/07 10:35:33;;;;;;;11.10;4.85;;;19.80;77.50;;;;;;4985776;28;20096;-78
2023/05/07 10:37:59;;;;;;;8.15;4.88;;;19.80;77.60;;;;;;5000406;28;20038;-78
2023/05/07 10:40:24;;;;;;;9.48;4.70;;;19.80;77.50;;;;;;5004246;28;20573;-81
2023/05/07 10:43:01;;;;;;;10.07;5.43;;;19.90;77.80;;;;;;5006788;28;20038;-81
2023/05/07 10:45:28;;;;;;;9.02;5.03;;;19.90;77.60;;;;;;4999200;28;20617;-79
2023/05/07 10:48:15;;;;;;;11.65;5.68;;;20.00;77.20;;;;;;4998461;28;20038;-81
2023/05/07 10:50:47;;;;;;;8.75;4.85;;;20.10;76.80;;;;;;4984820;28;20636;-79
2023/05/07 10:53:19;;;;;;;9.45;5.20;;;20.20;76.00;;;;;;5002391;28;20076;-78
2023/05/07 10:56:12;;;;;;;8.85;4.45;;;20.40;75.50;;;;;;5004318;28;20034;-83
2023/05/07 10:58:37;;;;;;;8.90;5.00;;;20.40;74.10;;;;;;5000816;28;20061;-78
2023/05/07 11:01:03;;;;;;;10.48;4.72;;;20.50;73.60;;;;;;5001752;28;20073;-80
2023/05/07 11:03:29;;;;;;;9.65;5.50;;;20.60;74.20;;;;;;4987452;28;20399;-84
2023/05/07 11:06:14;;;;;;;9.63;4.95;;;20.60;74.20;;;;;;5003454;28;20181;-79
2023/05/07 11:08:52;;;;;;;8.35;4.15;;;20.80;73.40;;;;;;4994671;28;20077;-83
2023/05/07 11:11:19;;;;;;;7.63;4.10;;;20.80;72.40;;;;;;4988472;28;20052;-83
2023/05/07 11:13:46;;;;;;;9.10;3.95;;;20.90;72.30;;;;;;4995824;28;20474;-83
2023/05/07 11:16:23;;;;;;;7.80;3.55;;;21.10;71.90;;;;;;4999177;28;20070;-82
2023/05/07 11:18:50;;;;;;;7.85;3.90;;;21.30;71.00;;;;;;5002333;28;20117;-79
2023/05/07 11:21:32;;;;;;;5.97;3.42;;;21.30;70.90;;;;;;4999996;28;20042;-79
2023/05/07 11:23:59;;;;;;;6.72;3.17;;;21.30;70.00;;;;;;5002030;28;20034;-81
2023/05/07 11:26:25;;;;;;;6.90;3.42;;;21.30;69.80;;;;;;5002506;28;20487;-79
2023/05/07 11:28:52;;;;;;;6.40;3.20;;;21.30;69.70;;;;;;5003492;28;20018;-80
2023/05/07 11:31:22;;;;;;;6.03;3.13;;;21.40;69.70;;;;;;5003741;28;20038;-80
2023/05/07 11:33:48;;;;;;;7.68;3.20;;;21.50;68.20;;;;;;5001461;28;20073;-83
2023/05/07 11:36:15;;;;;;;7.05;3.17;;;21.60;68.80;;;;;;5000408;28;20073;-82
2023/05/07 11:38:40;;;;;;;6.60;3.13;;;21.50;68.40;;;;;;4996828;28;20026;-81
2023/05/07 11:41:07;;;;;;;7.00;3.55;;;21.60;68.50;;;;;;4980906;28;20038;-79
2023/05/07 11:43:35;;;;;;;5.65;2.78;;;21.60;69.20;;;;;;5005925;28;20112;-80
2023/05/07 11:46:10;;;;;;;5.30;2.83;;;21.60;68.60;;;;;;5003337;28;20049;-82
2023/05/07 11:48:36;;;;;;;5.93;2.50;;;21.60;69.70;;;;;;4985609;28;20414;-81
2023/05/07 11:51:04;;;;;;;6.45;3.10;;;21.60;67.90;;;;;;4999829;28;20470;-80
2023/05/07 11:53:38;;;;;;;6.60;2.88;;;21.60;67.90;;;;;;4995520;28;20093;-82
2023/05/07 11:56:11;;;;;;;6.07;2.97;;;21.60;68.20;;;;;;4994049;28;20156;-79
2023/05/07 11:58:38;;;;;;;5.35;3.00;;;21.60;68.50;;;;;;4999526;28;20080;-79
2023/05/07 12:01:03;;;;;;;6.45;3.03;;;21.70;68.20;;;;;;5003113;28;20038;-81
2023/05/07 12:03:29;;;;;;;7.25;3.00;;;21.70;67.50;;;;;;5001407;28;20107;-85
2023/05/07 12:05:55;;;;;;;5.15;2.78;;;21.70;68.80;;;;;;4998897;28;20061;-80
2023/05/07 12:08:21;;;;;;;6.05;2.72;;;21.80;68.80;;;;;;4985512;28;20032;-82
2023/05/07 12:10:50;;;;;;;7.07;3.15;;;21.90;68.20;;;;;;4972714;28;20520;-80
2023/05/07 12:13:19;;;;;;;6.28;3.00;;;22.00;67.70;;;;;;4993900;28;20034;-79
2023/05/07 12:15:44;;;;;;;8.40;3.00;;;22.10;67.90;;;;;;4991759;28;20031;-82
2023/05/07 12:18:12;;;;;;;8.05;3.47;;;22.10;67.30;;;;;;4991354;28;20030;-82
2023/05/07 12:20:38;;;;;;;6.70;3.17;;;22.20;67.70;;;;;;4989768;28;20050;-80
2023/05/07 12:23:04;;;;;;;8.38;3.20;;;22.20;67.00;;;;;;4976279;28;20048;-82
2023/05/07 12:25:37;;;;;;;5.97;2.83;;;22.30;66.90;;;;;;4991105;28;20030;-83
2023/05/07 12:28:07;;;;;;;6.57;3.20;;;22.50;66.20;;;;;;4990863;28;20038;-81
2023/05/07 12:30:37;;;;;;;7.03;3.30;;;22.60;66.30;;;;;;4993742;28;20030;-82
2023/05/07 12:33:03;;;;;;;6.10;3.10;;;22.50;66.60;;;;;;4996500;28;20034;-79
2023/05/07 12:35:30;;;;;;;6.70;3.33;;;22.60;66.00;;;;;;4977839;28;20580;-82